Pagrindinis puslapis
METAR-TAF:

METAR-TAF

Oro uostai :

Puerto Suaresas, Bolivija

platuma: 18-59S, ilguma: 057-49W, Aukštis: 134 m

Dabartinis oras

Ataskaita buvo paskelbta 8 valandos ir 25 minutes, ne 23:00 UTC
Ramus vėjas
Temperatūra 29°C
Drėgmė 66%
Slėgis 1009 hPa
Matomumas 10 km arba daugiau

METAR: SLPS 272300Z 00000KT 9999 NSC 29/22 Q1009

Laikas: 03:25 (07:25 UTC)

Prognozė

Ataskaita buvo paskelbta 3 valandos ir 25 minutes, ne 04:00 UTC
Prognozė galioja nuo 28 metu 06 UTC su 29 metu 06 UTC
Vėjas 2 kt nuo kintamojo kryptimis
Matomumas 10 km arba daugiau
Tapsmas
nuo 28 metu 15 UTC su 28 metu 18 UTC
Mažai debesys ne aukštis 2000 ft
Tapsmas
nuo 28 metu 23 UTC su 29 metu 01 UTC

TAF: SLPS 280400Z 2806/2906 VRB02KT 9999 NSC TX35/2819Z TN24/2810Z BECMG 2815/2818 FEW020 BECMG 2823/2901 NSC

Orai ataskaitas ir orų prognozės (METAR, TAF).

turimą stotys yra geltonos ir raudonos taškus žemėlapyje.

Perkelti pele per norėdami pamatyti stoties vardą.

Tada spustelėkite, norėdami matyti oro stebėjimo ir prognozės.

Norėdami pakeisti žemėlapį: spustelėkite ant žalios mygtukų su juodo kryžiaus žemyn,; žalią mygtuką su brūkšneliu, jei norite nutolinti; arba žalių rodyklių gretimoms žemėlapius.


METAR-TAF: